createdAt,value
2018-04-17T00:01:13.561Z,49.20
2018-04-17T00:03:41.264Z,45.37
2018-04-17T00:06:08.895Z,47.13
2018-04-17T00:08:36.542Z,49.20
2018-04-17T00:11:04.170Z,48.07
2018-04-17T00:13:32.580Z,47.57
2018-04-17T00:16:00.239Z,48.90
2018-04-17T00:18:27.925Z,49.40
2018-04-17T00:20:55.572Z,46.93
2018-04-17T00:23:23.788Z,51.77
2018-04-17T00:25:51.446Z,48.90
2018-04-17T00:28:20.792Z,52.57
2018-04-17T00:30:48.786Z,51.73
2018-04-17T00:33:16.553Z,52.13
2018-04-17T00:35:44.205Z,52.37
2018-04-17T00:38:11.889Z,51.10
2018-04-17T00:40:39.494Z,57.73
2018-04-17T00:43:07.879Z,54.33
2018-04-17T00:45:35.534Z,52.40
2018-04-17T00:48:03.140Z,54.63
2018-04-17T00:50:30.775Z,57.80
2018-04-17T00:52:58.421Z,57.40
2018-04-17T00:55:26.014Z,58.83
2018-04-17T00:57:53.661Z,55.67
2018-04-17T01:00:21.277Z,53.60
2018-04-17T01:02:48.872Z,56.37
2018-04-17T01:05:16.481Z,53.20
2018-04-17T01:07:44.121Z,51.27
2018-04-17T01:10:11.706Z,55.67
2018-04-17T01:12:39.330Z,54.93
2018-04-17T01:15:06.993Z,56.63
2018-04-17T01:17:34.630Z,53.10
2018-04-17T01:20:03.115Z,49.13
2018-04-17T01:22:30.720Z,52.77
2018-04-17T01:24:59.122Z,55.93
2018-04-17T01:27:27.636Z,53.07
2018-04-17T01:29:55.240Z,61.13
2018-04-17T01:32:22.869Z,58.73
2018-04-17T01:34:51.113Z,58.00
2018-04-17T01:37:18.732Z,56.73
2018-04-17T01:39:46.337Z,57.37
2018-04-17T01:42:14.013Z,54.40
2018-04-17T01:44:43.811Z,56.83
2018-04-17T01:47:11.425Z,55.00
2018-04-17T01:49:39.063Z,56.60
2018-04-17T01:52:06.677Z,55.37
2018-04-17T01:54:35.067Z,53.70
2018-04-17T01:57:02.657Z,53.60
2018-04-17T01:59:30.271Z,58.07
2018-04-17T02:01:58.698Z,57.73
2018-04-17T02:04:26.913Z,58.83
2018-04-17T02:06:55.302Z,61.17
2018-04-17T02:09:24.073Z,60.77
2018-04-17T02:11:51.704Z,63.00
2018-04-17T02:14:19.291Z,58.47
2018-04-17T02:16:47.030Z,61.27
2018-04-17T02:19:14.616Z,65.53
2018-04-17T02:21:42.266Z,65.20
2018-04-17T02:24:09.921Z,62.30
2018-04-17T02:26:37.517Z,64.13
2018-04-17T02:29:05.213Z,64.17
2018-04-17T02:31:32.854Z,59.13
2018-04-17T02:34:00.711Z,60.63
2018-04-17T02:36:28.950Z,60.60
2018-04-17T02:38:56.580Z,59.63
2018-04-17T02:41:24.244Z,61.10
2018-04-17T02:43:51.846Z,62.03
2018-04-17T02:46:20.203Z,58.47
2018-04-17T02:48:47.842Z,58.47
2018-04-17T02:51:15.435Z,56.23
2018-04-17T02:53:43.165Z,56.87
2018-04-17T02:56:10.855Z,58.37
2018-04-17T02:58:38.488Z,60.87
2018-04-17T03:01:06.069Z,57.77
2018-04-17T03:03:33.857Z,58.77
2018-04-17T03:06:02.213Z,59.03
2018-04-17T03:08:29.802Z,56.57
2018-04-17T03:10:58.258Z,56.57
2018-04-17T03:13:25.838Z,59.77
2018-04-17T03:15:54.223Z,61.77
2018-04-17T03:18:22.637Z,59.43
2018-04-17T03:20:50.256Z,59.90
2018-04-17T03:23:18.620Z,63.33
2018-04-17T03:25:46.967Z,63.60
2018-04-17T03:28:14.641Z,62.60
2018-04-17T03:30:42.240Z,58.47
2018-04-17T03:33:09.894Z,62.77
2018-04-17T03:35:38.282Z,60.77
2018-04-17T03:38:05.899Z,63.17
2018-04-17T03:40:33.513Z,59.70
2018-04-17T03:43:01.333Z,61.77
2018-04-17T03:45:29.030Z,61.97
2018-04-17T03:47:56.705Z,64.53
2018-04-17T03:50:25.028Z,60.90
2018-04-17T03:52:52.731Z,59.23
2018-04-17T03:55:20.348Z,61.67
2018-04-17T03:57:47.935Z,60.37
2018-04-17T04:00:17.297Z,64.53
2018-04-17T04:02:45.017Z,64.30
2018-04-17T04:05:13.394Z,63.37
2018-04-17T04:07:41.076Z,66.00
2018-04-17T04:10:08.745Z,66.20
2018-04-17T04:12:36.413Z,68.47
2018-04-17T04:15:04.023Z,64.13
2018-04-17T04:17:45.108Z,64.57
2018-04-17T04:20:24.549Z,70.70
2018-04-17T04:23:04.128Z,63.70
2018-04-17T04:28:42.417Z,60.50
2018-04-17T04:31:10.017Z,69.17
2018-04-17T04:33:37.620Z,62.87
2018-04-17T04:36:06.044Z,57.87
2018-04-17T04:38:33.676Z,57.87
2018-04-17T04:41:01.297Z,59.07
2018-04-17T04:43:30.437Z,57.73
2018-04-17T04:45:58.465Z,57.80
2018-04-17T04:48:26.100Z,51.97
2018-04-17T04:50:53.749Z,52.40
2018-04-17T04:53:21.366Z,53.97
2018-04-17T04:55:49.725Z,50.67
2018-04-17T04:58:17.356Z,51.00
2018-04-17T05:00:44.969Z,52.10
2018-04-17T05:03:14.831Z,54.77
2018-04-17T05:05:42.440Z,51.97
2018-04-17T05:08:10.878Z,49.97
2018-04-17T05:10:39.328Z,56.47
2018-04-17T05:13:07.017Z,53.27
2018-04-17T05:15:34.656Z,49.90
2018-04-17T05:18:02.236Z,50.80
2018-04-17T05:20:29.868Z,51.67
2018-04-17T05:22:57.542Z,48.43
2018-04-17T05:25:25.894Z,49.27
2018-04-17T05:27:55.289Z,47.33
2018-04-17T05:30:23.643Z,49.07
2018-04-17T05:32:52.230Z,48.33
2018-04-17T05:35:20.665Z,52.07
2018-04-17T05:37:48.328Z,49.50
2018-04-17T05:40:16.204Z,55.03
2018-04-17T05:42:43.831Z,48.47
2018-04-17T05:45:12.493Z,53.57
2018-04-17T05:47:40.928Z,50.93
2018-04-17T05:50:08.564Z,46.83
2018-04-17T05:52:36.198Z,56.67
2018-04-17T05:55:04.600Z,52.23
2018-04-17T05:57:32.291Z,52.97
2018-04-17T05:59:59.869Z,54.57
2018-04-17T06:02:28.514Z,54.33
2018-04-17T06:04:56.132Z,49.70
2018-04-17T06:07:24.570Z,51.83
2018-04-17T06:09:52.237Z,57.77
2018-04-17T06:12:21.575Z,52.13
2018-04-17T06:14:49.969Z,54.33
2018-04-17T06:17:17.573Z,55.53
2018-04-17T06:19:45.239Z,54.27
2018-04-17T06:22:12.848Z,54.23
2018-04-17T06:24:40.443Z,56.67
2018-04-17T06:27:08.100Z,52.07
2018-04-17T06:29:35.750Z,58.10
2018-04-17T06:32:03.396Z,56.50
2018-04-17T06:34:31.700Z,50.47
2018-04-17T06:36:59.358Z,57.07
2018-04-17T06:39:26.994Z,51.23
2018-04-17T06:41:55.547Z,51.60
2018-04-17T06:44:23.280Z,51.33
2018-04-17T06:46:51.158Z,53.27
2018-04-17T06:49:18.831Z,52.27
2018-04-17T06:51:46.486Z,50.27
2018-04-17T06:54:14.067Z,51.27
2018-04-17T06:56:57.491Z,45.80
2018-04-17T06:59:25.892Z,50.37
2018-04-17T07:01:53.810Z,51.17
2018-04-17T07:04:21.463Z,48.50
2018-04-17T07:06:49.079Z,45.20
2018-04-17T07:09:17.534Z,49.13
2018-04-17T07:11:46.808Z,44.83
2018-04-17T07:14:14.627Z,48.53
2018-04-17T07:16:44.184Z,45.93
2018-04-17T07:19:15.661Z,43.13
2018-04-17T07:21:43.330Z,41.50
2018-04-17T07:24:11.736Z,40.10
2018-04-17T07:26:39.460Z,39.97
2018-04-17T07:29:07.861Z,39.20
2018-04-17T07:31:35.536Z,35.97
2018-04-17T07:34:03.201Z,38.80
2018-04-17T07:36:30.901Z,30.37
2018-04-17T07:38:58.536Z,32.87
2018-04-17T07:41:26.784Z,31.40
2018-04-17T07:43:54.459Z,38.80
2018-04-17T07:46:22.104Z,30.33
2018-04-17T07:48:50.526Z,28.17
2018-04-17T07:51:18.173Z,29.13
2018-04-17T07:53:45.830Z,26.97
2018-04-17T07:56:14.245Z,27.33
2018-04-17T07:58:41.833Z,23.20
2018-04-17T08:01:10.244Z,24.50
2018-04-17T08:03:37.873Z,27.20
2018-04-17T08:06:05.551Z,23.70
2018-04-17T08:08:33.738Z,22.73
2018-04-17T08:11:01.386Z,21.93
2018-04-17T08:13:28.979Z,23.60
2018-04-17T08:15:56.605Z,23.50
2018-04-17T08:18:24.221Z,23.00
2018-04-17T08:20:51.844Z,18.30
2018-04-17T08:23:19.462Z,20.87
2018-04-17T08:25:47.390Z,17.93
2018-04-17T08:28:15.058Z,18.90
2018-04-17T08:30:42.677Z,22.03
2018-04-17T08:33:10.354Z,13.87
2018-04-17T08:35:38.069Z,14.23
2018-04-17T08:38:06.477Z,18.27
2018-04-17T08:40:34.116Z,16.47
2018-04-17T08:43:01.735Z,15.40
2018-04-17T08:45:30.944Z,14.20
2018-04-17T08:47:58.657Z,15.23
2018-04-17T08:50:26.427Z,11.87
2018-04-17T08:52:54.100Z,12.13
2018-04-17T08:55:21.677Z,9.00
2018-04-17T08:57:49.353Z,9.77
2018-04-17T09:00:16.940Z,7.87
2018-04-17T09:02:45.332Z,11.40
2018-04-17T09:05:13.048Z,9.27
2018-04-17T09:07:40.615Z,9.80
2018-04-17T09:10:08.212Z,11.77
2018-04-17T09:12:35.875Z,12.67
2018-04-17T09:15:06.300Z,10.90
2018-04-17T09:17:34.756Z,16.60
2018-04-17T09:20:03.407Z,26.07
2018-04-17T09:22:31.716Z,14.53
2018-04-17T09:25:00.088Z,10.60
2018-04-17T09:27:28.531Z,10.10
2018-04-17T09:29:56.992Z,25.50
2018-04-17T09:32:24.668Z,13.40
2018-04-17T09:34:52.290Z,11.00
2018-04-17T09:37:19.903Z,12.00
2018-04-17T09:39:47.473Z,8.80
2018-04-17T09:42:15.064Z,9.50
2018-04-17T09:44:43.464Z,14.30
2018-04-17T09:47:11.622Z,9.90
2018-04-17T09:49:40.049Z,13.97
2018-04-17T09:52:07.715Z,13.30
2018-04-17T09:54:35.398Z,9.00
2018-04-17T09:57:03.827Z,10.17
2018-04-17T09:59:31.456Z,21.03
2018-04-17T10:01:59.878Z,9.27
2018-04-17T10:04:27.563Z,10.00
2018-04-17T10:06:55.221Z,8.97
2018-04-17T10:09:23.658Z,13.53
2018-04-17T10:11:51.393Z,11.90
2018-04-17T10:14:19.829Z,14.97
2018-04-17T10:16:47.441Z,32.57
2018-04-17T10:19:15.044Z,11.87
2018-04-17T10:21:42.703Z,19.00
2018-04-17T10:24:10.332Z,14.60
2018-04-17T10:26:37.945Z,14.17
2018-04-17T10:29:05.617Z,11.53
2018-04-17T10:31:34.681Z,10.50
2018-04-17T10:34:02.303Z,10.03
2018-04-17T10:36:29.919Z,12.40
2018-04-17T10:38:57.592Z,10.10
2018-04-17T10:41:25.233Z,8.90
2018-04-17T10:43:52.929Z,8.73
2018-04-17T10:46:21.477Z,12.00
2018-04-17T10:48:50.187Z,8.67
2018-04-17T10:51:18.648Z,13.00
2018-04-17T10:53:46.901Z,10.73
2018-04-17T10:56:14.559Z,9.63
2018-04-17T10:58:42.222Z,12.20
2018-04-17T11:01:09.940Z,9.50
2018-04-17T11:03:38.574Z,11.13
2018-04-17T11:06:06.307Z,8.67
2018-04-17T11:08:33.925Z,10.97
2018-04-17T11:11:01.577Z,12.00
2018-04-17T11:13:29.296Z,10.40
2018-04-17T11:15:57.043Z,11.07
2018-04-17T11:18:24.667Z,10.93
2018-04-17T11:20:52.285Z,9.27
2018-04-17T11:23:19.889Z,9.93
2018-04-17T11:25:47.542Z,12.27
2018-04-17T11:28:15.161Z,9.40
2018-04-17T11:30:42.912Z,10.70
2018-04-17T11:33:10.646Z,9.67
2018-04-17T11:35:38.429Z,10.40
2018-04-17T11:38:06.838Z,10.70
2018-04-17T11:40:34.572Z,7.20
2018-04-17T11:43:03.472Z,9.43
2018-04-17T11:45:31.073Z,9.20
2018-04-17T11:47:58.752Z,8.87
2018-04-17T11:50:26.464Z,16.30
2018-04-17T11:52:54.049Z,9.97
2018-04-17T11:55:21.721Z,9.43
2018-04-17T11:57:49.375Z,9.43
2018-04-17T12:00:16.998Z,13.63
2018-04-17T12:02:44.713Z,14.47
2018-04-17T12:05:12.426Z,15.23
2018-04-17T12:07:40.085Z,8.93
2018-04-17T12:10:07.790Z,11.73
2018-04-17T12:12:36.183Z,12.47
2018-04-17T12:15:03.841Z,10.53
2018-04-17T12:17:31.515Z,11.90
2018-04-17T12:19:59.217Z,12.03
2018-04-17T12:22:26.842Z,12.03
2018-04-17T12:24:55.292Z,9.27
2018-04-17T12:27:23.715Z,13.80
2018-04-17T12:29:51.464Z,12.60
2018-04-17T12:32:19.916Z,9.50
2018-04-17T12:34:47.556Z,9.40
2018-04-17T12:37:15.177Z,9.30
2018-04-17T12:39:42.852Z,16.37
2018-04-17T12:42:10.446Z,9.07
2018-04-17T12:44:38.122Z,10.30
2018-04-17T12:47:05.728Z,7.80
2018-04-17T12:49:33.568Z,12.60
2018-04-17T12:52:02.104Z,10.50
2018-04-17T12:54:29.737Z,10.33
2018-04-17T12:56:57.403Z,9.37
2018-04-17T12:59:25.063Z,9.67
2018-04-17T13:01:52.693Z,9.90
2018-04-17T13:04:21.133Z,9.43
2018-04-17T13:06:48.765Z,8.37
2018-04-17T13:09:16.429Z,12.10
2018-04-17T13:11:44.116Z,8.27
2018-04-17T13:14:12.497Z,9.30
2018-04-17T13:16:40.108Z,10.33
2018-04-17T13:19:08.535Z,11.07
2018-04-17T13:21:36.150Z,8.57
2018-04-17T13:24:03.772Z,8.43
2018-04-17T13:26:31.447Z,8.03
2018-04-17T13:28:59.885Z,7.30
2018-04-17T13:31:27.671Z,7.03
2018-04-17T13:33:55.358Z,10.00
2018-04-17T13:36:24.630Z,7.93
2018-04-17T13:38:53.117Z,9.40
2018-04-17T13:41:20.749Z,14.30
2018-04-17T13:43:48.362Z,8.20
2018-04-17T13:46:16.789Z,8.43
2018-04-17T13:48:44.425Z,6.57
2018-04-17T13:51:12.103Z,9.93
2018-04-17T13:53:40.213Z,28.47
2018-04-17T13:56:07.799Z,18.23
2018-04-17T13:58:36.204Z,13.03
2018-04-17T14:01:04.448Z,15.87
2018-04-17T14:03:32.809Z,12.53
2018-04-17T14:06:00.546Z,14.93
2018-04-17T14:08:28.231Z,15.87
2018-04-17T14:10:55.855Z,20.80
2018-04-17T14:13:23.524Z,13.47
2018-04-17T14:15:51.533Z,13.87
2018-04-17T14:18:19.946Z,9.70
2018-04-17T14:20:47.593Z,36.10
2018-04-17T14:23:15.226Z,16.17
2018-04-17T14:25:42.856Z,13.33
2018-04-17T14:28:10.476Z,11.03
2018-04-17T14:30:38.089Z,18.17
2018-04-17T14:33:05.757Z,13.47
2018-04-17T14:35:33.393Z,7.97
2018-04-17T14:38:01.056Z,8.83
2018-04-17T14:40:28.716Z,14.70
2018-04-17T14:42:56.308Z,10.37
2018-04-17T14:45:23.992Z,14.30
2018-04-17T14:47:52.392Z,9.60
2018-04-17T14:50:20.078Z,9.60
2018-04-17T14:52:47.671Z,9.37
2018-04-17T14:55:15.251Z,9.47
2018-04-17T14:57:43.713Z,10.90
2018-04-17T15:00:11.328Z,12.83
2018-04-17T15:02:38.976Z,9.17
2018-04-17T15:05:06.620Z,7.90
2018-04-17T15:07:35.095Z,10.07
2018-04-17T15:10:03.560Z,11.00
2018-04-17T15:12:31.936Z,9.43
2018-04-17T15:14:59.585Z,10.40
2018-04-17T15:17:28.003Z,11.30
2018-04-17T15:19:55.610Z,11.80
2018-04-17T15:22:23.364Z,12.07
2018-04-17T15:24:50.999Z,8.23
2018-04-17T15:27:18.633Z,7.23
2018-04-17T15:29:47.041Z,8.57
2018-04-17T15:32:14.696Z,8.57
2018-04-17T15:34:42.331Z,8.83
2018-04-17T15:37:10.756Z,8.47
2018-04-17T15:39:38.392Z,8.97
2018-04-17T15:42:06.015Z,12.23
2018-04-17T15:44:33.661Z,16.23
2018-04-17T15:47:01.262Z,14.83
2018-04-17T15:49:29.802Z,17.33
2018-04-17T15:51:57.502Z,14.03
2018-04-17T15:54:25.902Z,11.97
2018-04-17T15:56:53.565Z,13.40
2018-04-17T15:59:21.228Z,8.13
2018-04-17T16:01:48.850Z,15.73
2018-04-17T16:04:17.267Z,13.93
2018-04-17T16:06:44.857Z,10.83
2018-04-17T16:09:12.550Z,9.90
2018-04-17T16:11:40.976Z,12.90
2018-04-17T16:14:08.657Z,9.33
2018-04-17T16:16:37.051Z,9.27
2018-04-17T16:19:04.700Z,15.37
2018-04-17T16:21:33.267Z,33.17
2018-04-17T16:24:00.892Z,10.33
2018-04-17T16:26:29.132Z,11.50
2018-04-17T16:28:56.868Z,11.10
2018-04-17T16:31:24.484Z,13.60
2018-04-17T16:33:53.166Z,10.13
2018-04-17T16:36:21.516Z,7.67
2018-04-17T16:38:49.235Z,8.20
2018-04-17T16:41:16.915Z,9.77
2018-04-17T16:43:44.555Z,10.80
2018-04-17T16:46:12.241Z,11.03
2018-04-17T16:48:39.929Z,8.60
2018-04-17T16:51:07.567Z,11.07
2018-04-17T16:53:35.530Z,9.67
2018-04-17T16:56:03.200Z,10.27
2018-04-17T16:58:30.772Z,10.93
2018-04-17T17:00:58.395Z,8.00
2018-04-17T17:03:26.000Z,9.37
2018-04-17T17:05:53.772Z,9.57
2018-04-17T17:08:21.668Z,8.27
2018-04-17T17:10:49.930Z,8.33
2018-04-17T17:13:18.601Z,11.93
2018-04-17T17:15:47.051Z,11.33
2018-04-17T17:18:14.668Z,11.97
2018-04-17T17:20:42.326Z,11.03
2018-04-17T17:23:10.041Z,10.43
2018-04-17T17:25:46.920Z,7.80
2018-04-17T17:28:14.576Z,9.17
2018-04-17T17:30:42.216Z,10.57
2018-04-17T17:33:09.861Z,9.87
2018-04-17T17:35:37.542Z,11.63
2018-04-17T17:38:05.169Z,7.63
2018-04-17T17:40:32.755Z,12.63
2018-04-17T17:43:00.395Z,9.23
2018-04-17T17:45:28.700Z,10.23
2018-04-17T17:47:56.556Z,10.03
2018-04-17T17:50:24.166Z,8.57
2018-04-17T17:52:53.484Z,10.67
2018-04-17T17:55:21.144Z,9.80
2018-04-17T17:57:48.776Z,10.20
2018-04-17T18:00:17.175Z,11.40
2018-04-17T18:02:45.569Z,12.00
2018-04-17T18:05:13.247Z,13.10
2018-04-17T18:07:40.843Z,9.70
2018-04-17T18:10:08.516Z,11.57
2018-04-17T18:12:36.145Z,9.20
2018-04-17T18:15:03.785Z,9.80
2018-04-17T18:17:31.437Z,10.83
2018-04-17T18:19:59.075Z,10.83
2018-04-17T18:22:27.593Z,13.13
2018-04-17T18:24:56.038Z,11.50
2018-04-17T18:27:24.557Z,13.67
2018-04-17T18:29:53.880Z,13.20
2018-04-17T18:32:21.518Z,11.37
2018-04-17T18:34:49.204Z,9.73
2018-04-17T18:37:16.848Z,11.23
2018-04-17T18:39:44.520Z,10.33
2018-04-17T18:42:12.143Z,13.50
2018-04-17T18:44:39.787Z,12.93
2018-04-17T18:47:08.171Z,11.13
2018-04-17T18:49:36.516Z,9.10
2018-04-17T18:52:04.172Z,12.13
2018-04-17T18:54:31.794Z,14.50
2018-04-17T18:56:59.407Z,12.77
2018-04-17T18:59:27.853Z,19.07
2018-04-17T19:01:55.510Z,12.90
2018-04-17T19:04:23.190Z,14.20
2018-04-17T19:06:50.799Z,12.77
2018-04-17T19:09:18.380Z,13.67
2018-04-17T19:11:46.023Z,13.60
2018-04-17T19:14:13.636Z,11.60
2018-04-17T19:16:41.297Z,12.30
2018-04-17T19:19:08.932Z,12.20
2018-04-17T19:21:36.589Z,13.63
2018-04-17T19:24:04.256Z,14.47
2018-04-17T19:26:31.943Z,12.10
2018-04-17T19:28:59.616Z,14.57
2018-04-17T19:31:28.003Z,14.30
2018-04-17T19:33:56.383Z,14.30
2018-04-17T19:36:24.750Z,13.17
2018-04-17T19:38:53.794Z,15.60
2018-04-17T19:41:21.448Z,10.23
2018-04-17T19:43:49.167Z,14.00
2018-04-17T19:46:17.569Z,12.67
2018-04-17T19:48:45.221Z,11.20
2018-04-17T19:51:13.731Z,14.87
2018-04-17T19:53:41.830Z,16.03
2018-04-17T19:56:09.514Z,14.17
2018-04-17T19:58:37.866Z,15.63
2018-04-17T20:01:05.512Z,14.17
2018-04-17T20:03:33.088Z,14.63
2018-04-17T20:06:01.472Z,18.40
2018-04-17T20:08:29.113Z,11.60
2018-04-17T20:10:56.904Z,13.40
2018-04-17T20:13:24.560Z,15.17
2018-04-17T20:15:52.168Z,15.37
2018-04-17T20:18:19.809Z,13.33
2018-04-17T20:20:48.209Z,14.40
2018-04-17T20:23:15.866Z,12.50
2018-04-17T20:25:43.572Z,14.33
2018-04-17T20:28:11.197Z,14.57
2018-04-17T20:30:39.533Z,14.53
2018-04-17T20:33:07.934Z,17.83
2018-04-17T20:35:37.038Z,22.80
2018-04-17T20:38:04.683Z,19.90
2018-04-17T20:40:32.304Z,26.80
2018-04-17T20:42:59.976Z,30.37
2018-04-17T20:45:27.559Z,27.70
2018-04-17T20:47:56.002Z,29.03
2018-04-17T20:50:24.444Z,28.67
2018-04-17T20:52:52.068Z,24.33
2018-04-17T20:55:20.504Z,22.20
2018-04-17T20:57:48.131Z,24.77
2018-04-17T21:00:15.804Z,28.17
2018-04-17T21:02:43.437Z,25.43
2018-04-17T21:05:11.157Z,25.43
2018-04-17T21:07:39.629Z,23.10
2018-04-17T21:10:07.462Z,25.67
2018-04-17T21:12:35.161Z,25.67
2018-04-17T21:15:02.789Z,21.37
2018-04-17T21:17:30.553Z,26.27
2018-04-17T21:19:58.187Z,31.13
2018-04-17T21:22:26.674Z,22.93
2018-04-17T21:24:55.177Z,20.83
2018-04-17T21:27:22.916Z,23.97
2018-04-17T21:29:51.315Z,28.70
2018-04-17T21:32:18.943Z,18.90
2018-04-17T21:34:47.648Z,19.87
2018-04-17T21:37:15.398Z,20.67
2018-04-17T21:39:43.903Z,24.30
2018-04-17T21:42:12.396Z,22.73
2018-04-17T21:44:40.973Z,20.80
2018-04-17T21:47:08.609Z,19.03
2018-04-17T21:49:36.988Z,19.90
2018-04-17T21:52:05.499Z,23.53
2018-04-17T21:54:33.091Z,22.20
2018-04-17T21:57:00.697Z,19.27
2018-04-17T21:59:28.361Z,20.37
2018-04-17T22:01:55.985Z,23.23
2018-04-17T22:04:23.689Z,24.37
2018-04-17T22:06:51.318Z,21.13
2018-04-17T22:09:18.922Z,19.77
2018-04-17T22:11:46.698Z,23.80
2018-04-17T22:14:14.299Z,23.77
2018-04-17T22:16:41.989Z,19.60
2018-04-17T22:19:09.645Z,21.57
2018-04-17T22:21:37.376Z,24.50
2018-04-17T22:24:05.787Z,24.00
2018-04-17T22:26:33.410Z,25.73
2018-04-17T22:29:01.050Z,25.40
2018-04-17T22:31:28.697Z,18.70
2018-04-17T22:33:56.336Z,22.23
2018-04-17T22:36:24.020Z,23.87
2018-04-17T22:38:51.660Z,18.97
2018-04-17T22:41:19.338Z,20.23
2018-04-17T22:43:47.008Z,22.47
2018-04-17T22:46:14.615Z,23.30
2018-04-17T22:48:43.024Z,22.63
2018-04-17T22:51:10.669Z,25.47
2018-04-17T22:53:39.089Z,18.97
2018-04-17T22:56:06.730Z,25.80
2018-04-17T22:58:34.366Z,20.30
2018-04-17T23:01:02.855Z,17.83
2018-04-17T23:03:30.545Z,17.27
2018-04-17T23:05:58.225Z,20.97
2018-04-17T23:08:25.812Z,21.87
2018-04-17T23:10:53.453Z,20.23
2018-04-17T23:13:21.808Z,16.00
2018-04-17T23:15:49.401Z,17.83
2018-04-17T23:18:17.053Z,21.13
2018-04-17T23:20:44.702Z,19.47
2018-04-17T23:23:12.375Z,16.80
2018-04-17T23:25:40.008Z,18.57
2018-04-17T23:28:07.602Z,19.47
2018-04-17T23:30:35.257Z,16.03
2018-04-17T23:33:02.917Z,19.53
2018-04-17T23:35:30.503Z,19.53
2018-04-17T23:37:58.969Z,19.97
2018-04-17T23:40:26.565Z,18.40
2018-04-17T23:42:54.155Z,17.13
2018-04-17T23:45:21.787Z,15.57
2018-04-17T23:47:49.405Z,17.20
2018-04-17T23:50:17.049Z,14.17
2018-04-17T23:52:44.624Z,17.20
2018-04-17T23:55:12.266Z,16.53
2018-04-17T23:57:39.937Z,15.60
